Time;durP1;ratioP1;P1;durP2;ratioP2;P2;SDS_P1;SDS_P2;PMS_P1;PMS_P2;Temp;Humidity;BMP_temperature;BMP_pressure;BME280_temperature;BME280_humidity;BME280_pressure;Samples;Min_cycle;Max_cycle;Signal;HPM_P1;HPM_P2
2022/03/18 00:00:25;;;;;;;18.50;10.27;;;6.50;99.90;;;;;;5035903;28;20433;-69
2022/03/18 00:02:53;;;;;;;11.80;10.60;;;6.50;99.90;;;;;;5017897;28;20186;-69
2022/03/18 00:05:19;;;;;;;13.50;10.10;;;6.40;99.90;;;;;;5035892;28;20766;-69
2022/03/18 00:07:45;;;;;;;13.83;10.37;;;6.50;99.90;;;;;;5035505;28;20448;-69
2022/03/18 00:10:15;;;;;;;19.63;10.70;;;6.50;99.90;;;;;;5039763;28;20413;-69
2022/03/18 00:12:41;;;;;;;14.10;9.40;;;6.50;99.90;;;;;;5021368;28;20401;-69
2022/03/18 00:15:09;;;;;;;13.83;10.57;;;6.50;99.90;;;;;;5037922;28;20803;-69
2022/03/18 00:17:35;;;;;;;12.23;10.00;;;6.50;99.90;;;;;;5037646;28;20975;-69
2022/03/18 00:20:00;;;;;;;11.73;9.87;;;6.60;99.90;;;;;;5037409;28;20410;-69
2022/03/18 00:22:26;;;;;;;12.97;11.23;;;6.60;99.90;;;;;;5038072;28;20467;-69
2022/03/18 00:24:52;;;;;;;12.97;10.40;;;6.60;99.90;;;;;;5039514;28;20198;-70
2022/03/18 00:27:17;;;;;;;14.70;10.30;;;6.50;99.90;;;;;;5022692;28;20643;-69
2022/03/18 00:29:43;;;;;;;11.80;9.47;;;6.40;99.90;;;;;;5036867;28;20234;-69
2022/03/18 00:32:09;;;;;;;13.13;10.13;;;6.40;99.90;;;;;;5036299;28;20182;-69
2022/03/18 00:34:35;;;;;;;16.60;12.20;;;6.40;99.90;;;;;;5037472;28;20567;-69
2022/03/18 00:37:00;;;;;;;14.97;9.73;;;6.20;99.90;;;;;;5047137;28;20496;-69
2022/03/18 00:39:26;;;;;;;14.67;9.33;;;6.20;99.90;;;;;;5042757;28;20171;-68
2022/03/18 00:41:51;;;;;;;12.03;10.43;;;6.20;99.90;;;;;;5038591;28;20538;-69
2022/03/18 00:44:17;;;;;;;13.73;10.30;;;6.00;99.90;;;;;;5036966;28;20232;-69
2022/03/18 00:46:43;;;;;;;12.17;9.30;;;6.00;99.90;;;;;;5036506;28;20174;-69
2022/03/18 00:52:05;;;;;;;12.10;10.10;;;6.10;99.90;;;;;;5036122;28;20181;-69
2022/03/18 00:54:32;;;;;;;16.90;10.50;;;6.20;99.90;;;;;;5035313;28;20457;-69
2022/03/18 00:56:58;;;;;;;13.13;8.63;;;6.20;99.90;;;;;;5035669;28;20455;-69
2022/03/18 00:59:24;;;;;;;15.67;8.80;;;6.30;99.90;;;;;;5035353;28;20405;-69
2022/03/18 01:01:52;;;;;;;12.83;9.93;;;6.30;99.90;;;;;;5035377;28;20249;-69
2022/03/18 01:04:19;;;;;;;14.90;9.67;;;6.30;99.90;;;;;;5035866;28;20163;-69
2022/03/18 01:06:45;;;;;;;16.17;9.90;;;6.30;99.90;;;;;;5017828;28;20433;-69
2022/03/18 01:09:10;;;;;;;16.73;9.97;;;6.30;99.90;;;;;;5034913;28;20436;-69
2022/03/18 01:11:36;;;;;;;12.57;9.73;;;6.20;99.90;;;;;;5035173;28;20420;-68
2022/03/18 01:14:01;;;;;;;9.80;8.23;;;6.30;99.90;;;;;;5035508;28;20278;-69
2022/03/18 01:16:27;;;;;;;16.70;9.90;;;6.20;99.90;;;;;;5035772;28;20723;-69
2022/03/18 01:18:52;;;;;;;13.50;9.80;;;6.20;99.90;;;;;;5035090;28;20185;-69
2022/03/18 01:21:18;;;;;;;12.10;10.07;;;6.20;99.90;;;;;;5034250;28;20189;-69
2022/03/18 01:23:43;;;;;;;12.50;10.13;;;6.20;99.90;;;;;;5017173;28;20179;-69
2022/03/18 01:26:09;;;;;;;14.67;9.80;;;6.20;99.90;;;;;;5021660;28;20195;-68
2022/03/18 01:28:35;;;;;;;12.73;9.67;;;6.30;99.90;;;;;;5038775;28;20206;-70
2022/03/18 01:31:00;;;;;;;10.90;9.50;;;6.20;99.90;;;;;;5036962;28;20202;-69
2022/03/18 01:33:26;;;;;;;10.83;9.00;;;6.20;99.90;;;;;;5036083;28;20199;-68
2022/03/18 01:35:51;;;;;;;12.33;9.87;;;6.10;99.90;;;;;;5036061;28;20191;-68
2022/03/18 01:38:17;;;;;;;12.63;8.80;;;6.20;99.90;;;;;;5035819;28;20171;-68
2022/03/18 01:40:42;;;;;;;15.90;9.20;;;6.10;99.90;;;;;;5035695;28;20179;-68
2022/03/18 01:43:11;;;;;;;13.87;10.53;;;6.10;99.90;;;;;;5035439;28;20656;-68
2022/03/18 01:45:38;;;;;;;15.10;9.80;;;6.00;99.90;;;;;;5035490;28;20195;-72
2022/03/18 01:48:04;;;;;;;11.90;9.33;;;6.00;99.90;;;;;;5036942;28;20410;-69
2022/03/18 01:50:30;;;;;;;13.40;10.70;;;6.00;99.90;;;;;;5036754;28;20789;-68
2022/03/18 01:52:57;;;;;;;17.10;10.53;;;6.00;99.90;;;;;;5034097;28;20453;-68
2022/03/18 01:55:24;;;;;;;13.87;9.83;;;6.00;99.90;;;;;;5016181;28;20958;-69
2022/03/18 01:57:50;;;;;;;14.37;10.73;;;6.00;99.90;;;;;;5034210;28;20420;-69
2022/03/18 02:00:15;;;;;;;12.80;9.63;;;6.00;99.90;;;;;;5016543;28;20844;-69
2022/03/18 02:02:41;;;;;;;13.17;10.00;;;5.90;99.90;;;;;;5034253;28;20410;-68
2022/03/18 02:05:09;;;;;;;15.63;9.83;;;6.00;99.90;;;;;;5034320;28;20178;-69
2022/03/18 02:07:34;;;;;;;13.93;10.73;;;6.00;99.90;;;;;;5034725;28;20586;-69
2022/03/18 02:10:00;;;;;;;11.10;8.67;;;6.00;99.90;;;;;;5034325;28;20501;-69
2022/03/18 02:12:25;;;;;;;13.30;9.67;;;6.00;99.90;;;;;;5016458;28;20171;-69
2022/03/18 02:14:51;;;;;;;15.40;10.63;;;6.00;99.90;;;;;;5016572;28;20582;-68
2022/03/18 02:17:18;;;;;;;19.47;10.40;;;6.00;99.90;;;;;;5034601;28;20175;-68
2022/03/18 02:19:45;;;;;;;12.57;8.47;;;6.00;99.90;;;;;;5034720;28;20183;-69
2022/03/18 02:22:14;;;;;;;12.67;9.20;;;6.00;99.90;;;;;;5035382;28;20778;-68
2022/03/18 02:24:41;;;;;;;11.30;8.23;;;5.90;99.90;;;;;;5035852;28;20429;-69
2022/03/18 02:27:07;;;;;;;11.77;8.50;;;6.00;99.90;;;;;;5034177;28;20436;-68
2022/03/18 02:29:33;;;;;;;11.60;9.33;;;6.00;99.90;;;;;;5033839;28;20437;-68
2022/03/18 02:32:00;;;;;;;17.90;8.17;;;6.00;99.90;;;;;;5015838;28;20445;-68
2022/03/18 02:34:26;;;;;;;14.40;9.40;;;6.00;99.90;;;;;;5033432;28;20487;-68
2022/03/18 02:36:52;;;;;;;11.90;9.90;;;6.00;99.90;;;;;;5015813;28;20417;-69
2022/03/18 02:39:18;;;;;;;12.57;10.60;;;6.00;99.90;;;;;;5034054;28;20398;-68
2022/03/18 02:41:43;;;;;;;15.67;10.20;;;5.80;99.90;;;;;;5033520;28;20178;-69
2022/03/18 02:44:09;;;;;;;16.70;10.20;;;5.80;99.90;;;;;;5033592;28;20253;-68
2022/03/18 02:46:34;;;;;;;13.67;9.07;;;5.80;99.90;;;;;;5033612;28;20258;-68
2022/03/18 02:49:02;;;;;;;13.47;10.83;;;5.70;99.90;;;;;;5033795;28;20258;-69
2022/03/18 02:51:28;;;;;;;14.80;11.00;;;5.60;99.90;;;;;;5033811;28;20163;-69
2022/03/18 02:53:55;;;;;;;14.60;10.93;;;5.60;99.90;;;;;;5033207;28;20463;-69
2022/03/18 02:56:20;;;;;;;12.97;8.50;;;5.60;99.90;;;;;;5032914;28;20472;-68
2022/03/18 02:58:46;;;;;;;14.83;10.83;;;5.50;99.90;;;;;;5015762;28;20472;-72
2022/03/18 03:01:12;;;;;;;16.10;10.13;;;5.40;99.90;;;;;;5033094;28;20171;-69
2022/03/18 03:03:37;;;;;;;11.83;9.30;;;5.40;99.90;;;;;;5032639;28;20415;-69
2022/03/18 03:08:52;;;;;;;17.40;9.20;;;5.40;99.90;;;;;;5034624;28;20228;-68
2022/03/18 03:11:18;;;;;;;14.97;9.63;;;5.40;99.90;;;;;;5033295;28;20418;-68
2022/03/18 03:13:43;;;;;;;11.57;9.23;;;5.30;99.90;;;;;;5033051;28;20668;-68
2022/03/18 03:16:09;;;;;;;10.73;8.90;;;5.30;99.90;;;;;;5033431;28;20663;-69
2022/03/18 03:18:35;;;;;;;16.10;9.67;;;5.20;99.90;;;;;;5015699;28;20188;-68
2022/03/18 03:21:00;;;;;;;13.83;8.80;;;5.20;99.90;;;;;;5033216;28;20658;-68
2022/03/18 03:23:26;;;;;;;14.37;9.80;;;5.30;99.90;;;;;;5032477;28;20497;-68
2022/03/18 03:25:55;;;;;;;13.50;10.20;;;5.20;99.90;;;;;;5015064;28;20228;-69
2022/03/18 03:28:21;;;;;;;17.10;10.83;;;5.20;99.90;;;;;;5033087;28;20189;-68
2022/03/18 03:30:48;;;;;;;17.40;10.10;;;5.30;99.90;;;;;;5015105;28;20436;-68
2022/03/18 03:33:14;;;;;;;13.40;10.57;;;5.20;99.90;;;;;;5032492;28;20461;-69
2022/03/18 03:35:39;;;;;;;13.57;9.83;;;5.10;99.90;;;;;;5032763;28;20436;-68
2022/03/18 03:38:05;;;;;;;17.17;10.60;;;5.00;99.90;;;;;;5033140;28;20435;-69
2022/03/18 03:40:32;;;;;;;14.03;9.47;;;5.00;99.90;;;;;;5035161;28;20206;-69
2022/03/18 03:42:57;;;;;;;12.73;9.87;;;5.00;99.90;;;;;;5035415;28;20423;-69
2022/03/18 03:45:23;;;;;;;12.30;9.30;;;5.00;99.90;;;;;;5039564;28;20436;-69
2022/03/18 03:47:49;;;;;;;12.63;10.30;;;4.90;99.90;;;;;;5039631;28;20178;-70
2022/03/18 03:50:15;;;;;;;14.93;9.97;;;4.90;99.90;;;;;;5039279;28;20269;-69
2022/03/18 03:52:41;;;;;;;10.73;9.30;;;4.80;99.90;;;;;;5038086;28;20431;-69
2022/03/18 03:55:09;;;;;;;14.20;11.00;;;4.80;99.90;;;;;;5037127;28;20860;-69
2022/03/18 03:57:34;;;;;;;15.53;10.27;;;4.80;99.90;;;;;;5037300;28;20409;-68
2022/03/18 04:00:00;;;;;;;12.20;9.23;;;4.70;99.90;;;;;;5037804;28;20948;-69
2022/03/18 04:02:29;;;;;;;15.60;10.23;;;4.60;99.90;;;;;;5038277;28;20209;-69
2022/03/18 04:04:54;;;;;;;13.17;9.87;;;4.60;99.90;;;;;;5021135;28;20286;-68
2022/03/18 04:07:20;;;;;;;16.10;11.20;;;4.60;99.90;;;;;;5038407;28;20902;-69
2022/03/18 04:09:49;;;;;;;15.93;10.37;;;4.60;99.90;;;;;;5039090;28;20201;-69
2022/03/18 04:12:15;;;;;;;13.30;9.53;;;4.70;99.90;;;;;;5021492;28;20178;-69
2022/03/18 04:14:40;;;;;;;19.37;10.57;;;4.80;99.90;;;;;;5039531;28;20522;-68
2022/03/18 04:17:06;;;;;;;13.17;10.33;;;4.80;99.90;;;;;;5038895;28;20445;-68
2022/03/18 04:19:32;;;;;;;13.60;9.90;;;4.80;99.90;;;;;;5039124;28;20170;-69
2022/03/18 04:21:57;;;;;;;12.80;10.37;;;4.90;99.90;;;;;;5004985;28;20171;-67
2022/03/18 04:24:23;;;;;;;11.40;9.10;;;4.90;99.90;;;;;;5039072;28;20183;-69
2022/03/18 04:26:49;;;;;;;12.60;10.00;;;4.90;99.90;;;;;;5039376;28;20193;-69
2022/03/18 04:29:14;;;;;;;13.37;9.77;;;4.90;99.90;;;;;;5020604;28;20186;-68
2022/03/18 04:31:40;;;;;;;17.97;9.17;;;5.00;99.90;;;;;;5038138;28;20262;-69
2022/03/18 04:34:06;;;;;;;13.20;8.87;;;5.00;99.90;;;;;;5038647;28;20285;-68
2022/03/18 04:36:31;;;;;;;13.20;8.43;;;5.10;99.90;;;;;;5038010;28;20860;-69
2022/03/18 04:38:57;;;;;;;11.43;8.27;;;5.10;99.90;;;;;;5017796;28;20174;-69
2022/03/18 04:41:23;;;;;;;9.00;7.20;;;5.00;99.90;;;;;;5035605;28;20186;-69
2022/03/18 04:43:48;;;;;;;14.50;9.10;;;5.10;99.90;;;;;;5035320;28;20424;-69
2022/03/18 04:46:14;;;;;;;10.27;8.03;;;5.10;99.90;;;;;;5035607;28;20198;-69
2022/03/18 04:48:40;;;;;;;13.90;9.10;;;5.20;99.90;;;;;;5035511;28;20185;-68
2022/03/18 04:51:06;;;;;;;14.30;8.93;;;5.20;99.90;;;;;;5036004;28;20420;-69
2022/03/18 04:53:31;;;;;;;12.27;8.47;;;5.10;99.90;;;;;;5035391;28;20202;-69
2022/03/18 04:55:57;;;;;;;14.67;9.00;;;5.20;99.90;;;;;;5034153;28;20958;-69
2022/03/18 04:58:22;;;;;;;13.07;9.10;;;5.20;99.90;;;;;;5035546;28;20199;-69
2022/03/18 05:00:48;;;;;;;13.27;9.30;;;5.20;99.90;;;;;;5035539;28;20213;-69
2022/03/18 05:03:13;;;;;;;12.67;9.57;;;5.20;99.90;;;;;;5017451;28;20206;-69
2022/03/18 05:05:39;;;;;;;14.53;9.30;;;5.10;99.90;;;;;;5035336;28;20710;-69
2022/03/18 05:08:04;;;;;;;13.93;8.90;;;5.10;99.90;;;;;;5034801;28;20262;-68
2022/03/18 05:10:30;;;;;;;9.83;7.80;;;5.10;99.90;;;;;;5017600;28;20214;-69
2022/03/18 05:12:56;;;;;;;10.53;8.67;;;5.10;99.90;;;;;;5035112;28;20189;-69
2022/03/18 05:15:23;;;;;;;13.77;9.50;;;5.00;99.90;;;;;;5035830;28;20186;-69
2022/03/18 05:17:51;;;;;;;14.53;9.23;;;5.00;99.90;;;;;;5035532;28;20398;-70
2022/03/18 05:20:17;;;;;;;11.50;8.60;;;5.00;99.90;;;;;;5035550;28;20836;-69
2022/03/18 05:22:42;;;;;;;15.47;8.90;;;4.90;99.90;;;;;;5037224;28;20441;-69
2022/03/18 05:25:08;;;;;;;10.60;8.40;;;4.90;99.90;;;;;;5038330;28;20441;-69
2022/03/18 05:27:44;;;;;;;12.20;9.00;;;4.90;99.90;;;;;;5038403;28;20194;-69
2022/03/18 05:30:15;;;;;;;16.90;9.83;;;4.90;99.90;;;;;;5038209;28;20424;-68
2022/03/18 05:32:41;;;;;;;13.10;9.53;;;4.90;99.90;;;;;;5042861;28;20437;-69
2022/03/18 05:35:08;;;;;;;11.57;8.80;;;4.80;99.90;;;;;;5038635;28;20436;-70
2022/03/18 05:37:33;;;;;;;14.60;9.93;;;4.90;99.90;;;;;;5038763;28;20420;-69
2022/03/18 05:39:59;;;;;;;13.33;9.37;;;5.00;99.90;;;;;;5040794;28;20834;-69
2022/03/18 05:42:25;;;;;;;13.93;8.90;;;4.90;99.90;;;;;;5037617;28;20170;-69
2022/03/18 05:44:51;;;;;;;18.43;9.27;;;4.80;99.90;;;;;;5038417;28;20276;-68
2022/03/18 05:47:16;;;;;;;31.53;11.80;;;4.70;99.90;;;;;;5037735;28;20836;-69
2022/03/18 05:49:42;;;;;;;17.53;10.30;;;4.70;99.90;;;;;;5038202;28;20284;-68
2022/03/18 05:52:08;;;;;;;13.50;9.30;;;4.80;99.90;;;;;;5036813;28;20252;-69
2022/03/18 05:54:34;;;;;;;18.80;10.30;;;4.80;99.90;;;;;;5037122;28;20202;-69
2022/03/18 05:56:59;;;;;;;13.40;9.37;;;4.80;99.90;;;;;;5062999;22;20491;-69
2022/03/18 05:59:27;;;;;;;16.10;9.73;;;4.90;99.90;;;;;;5053039;28;20253;-68
2022/03/18 06:01:58;;;;;;;12.23;9.07;;;4.90;99.90;;;;;;5053001;28;20176;-68
2022/03/18 06:04:25;;;;;;;16.03;9.47;;;4.90;99.90;;;;;;5053193;28;20466;-70
2022/03/18 06:06:52;;;;;;;14.30;9.40;;;4.90;99.90;;;;;;5052462;28;20419;-69
2022/03/18 06:12:04;;;;;;;11.77;8.40;;;4.90;99.90;;;;;;5053022;28;20473;-70
2022/03/18 06:14:30;;;;;;;13.90;9.73;;;5.00;99.90;;;;;;5052886;28;20463;-69
2022/03/18 06:17:01;;;;;;;10.63;8.20;;;4.90;99.90;;;;;;5035040;28;20496;-68
2022/03/18 06:19:28;;;;;;;17.47;9.40;;;4.90;99.90;;;;;;5053052;28;20474;-68
2022/03/18 06:21:54;;;;;;;10.37;8.40;;;4.90;99.90;;;;;;5052466;28;20408;-69
2022/03/18 06:24:21;;;;;;;13.07;9.60;;;5.00;99.90;;;;;;5052733;28;20469;-69
2022/03/18 06:26:48;;;;;;;16.27;9.17;;;5.00;99.90;;;;;;5052590;28;20456;-69
2022/03/18 06:29:13;;;;;;;15.77;8.90;;;5.00;99.90;;;;;;5052608;28;20947;-68
2022/03/18 06:31:39;;;;;;;10.90;8.27;;;5.00;99.90;;;;;;5052280;28;20411;-68
2022/03/18 06:34:06;;;;;;;11.07;8.63;;;5.10;99.90;;;;;;5052263;28;20536;-69
2022/03/18 06:36:32;;;;;;;9.33;8.07;;;5.10;99.90;;;;;;5052093;28;20209;-69
2022/03/18 06:38:58;;;;;;;15.07;9.60;;;5.10;99.90;;;;;;5052141;28;20909;-69
2022/03/18 06:41:23;;;;;;;14.23;8.13;;;5.00;99.90;;;;;;5052717;28;20179;-70
2022/03/18 06:43:52;;;;;;;10.63;8.53;;;5.00;99.90;;;;;;5051985;28;20270;-70
2022/03/18 06:46:18;;;;;;;13.73;8.57;;;5.10;99.90;;;;;;5052447;28;20221;-69
2022/03/18 06:48:44;;;;;;;12.00;7.63;;;5.20;99.90;;;;;;5052507;28;20543;-69
2022/03/18 06:51:11;;;;;;;14.30;8.87;;;5.20;99.90;;;;;;5052203;28;20821;-69
2022/03/18 06:53:37;;;;;;;11.07;8.67;;;5.10;99.90;;;;;;5051646;28;20868;-69
2022/03/18 06:56:06;;;;;;;12.60;7.37;;;5.00;99.90;;;;;;5033981;28;20458;-69
2022/03/18 06:58:32;;;;;;;13.70;8.63;;;5.00;99.90;;;;;;5052169;28;20630;-70
2022/03/18 07:01:05;;;;;;;12.80;8.30;;;5.10;99.90;;;;;;5050675;28;21007;-68
2022/03/18 07:03:30;;;;;;;10.77;8.73;;;5.10;99.90;;;;;;5032315;28;20502;-69
2022/03/18 07:05:56;;;;;;;12.00;8.13;;;5.30;99.90;;;;;;5055867;28;20471;-70
2022/03/18 07:08:21;;;;;;;13.00;7.63;;;5.30;99.90;;;;;;5059339;28;20700;-68
2022/03/18 07:10:47;;;;;;;12.13;8.77;;;5.40;99.90;;;;;;5051645;28;20213;-67
2022/03/18 07:13:14;;;;;;;14.60;7.97;;;5.30;99.90;;;;;;5061539;28;20228;-68
2022/03/18 07:15:39;;;;;;;12.33;7.77;;;5.50;99.90;;;;;;5059469;28;20228;-69
2022/03/18 07:18:05;;;;;;;10.70;7.57;;;5.60;99.90;;;;;;5052511;28;20500;-67
2022/03/18 07:20:36;;;;;;;11.80;7.57;;;5.70;99.90;;;;;;5048414;28;20197;-68
2022/03/18 07:23:07;;;;;;;16.27;8.40;;;5.80;99.90;;;;;;5069728;28;20664;-68
2022/03/18 07:25:35;;;;;;;11.63;8.10;;;5.90;99.90;;;;;;5070111;28;20531;-68
2022/03/18 07:28:00;;;;;;;12.20;7.83;;;6.00;99.90;;;;;;5070184;28;20451;-70
2022/03/18 07:30:26;;;;;;;14.10;8.43;;;6.10;99.90;;;;;;5069839;28;20446;-70
2022/03/18 07:32:52;;;;;;;12.50;7.70;;;6.10;99.90;;;;;;5069068;28;20205;-69
2022/03/18 07:35:18;;;;;;;10.83;7.00;;;6.10;99.90;;;;;;5069959;28;20220;-68
2022/03/18 07:37:44;;;;;;;13.00;7.40;;;6.20;99.90;;;;;;5034882;28;20460;-68
2022/03/18 07:40:11;;;;;;;12.43;7.93;;;6.30;99.90;;;;;;5049920;28;20960;-68
2022/03/18 07:42:44;;;;;;;10.70;7.13;;;6.30;99.90;;;;;;5049879;28;20432;-69
2022/03/18 07:45:12;;;;;;;11.13;7.37;;;6.40;99.90;;;;;;5050130;28;20511;-68
2022/03/18 07:47:38;;;;;;;10.00;7.63;;;6.50;99.90;;;;;;5057883;28;20593;-67
2022/03/18 07:50:04;;;;;;;9.43;6.80;;;6.60;99.90;;;;;;5050459;28;20997;-68
2022/03/18 07:52:30;;;;;;;10.30;7.07;;;6.70;99.90;;;;;;5049685;28;20437;-68
2022/03/18 07:54:56;;;;;;;13.67;7.93;;;6.70;99.90;;;;;;5052053;28;20471;-69
2022/03/18 07:57:21;;;;;;;12.43;7.60;;;6.70;99.90;;;;;;5041122;28;20497;-69
2022/03/18 07:59:47;;;;;;;12.83;6.77;;;6.80;99.90;;;;;;5061863;28;20170;-69
2022/03/18 08:02:12;;;;;;;12.73;6.67;;;7.00;99.90;;;;;;5062541;28;20187;-69
2022/03/18 08:04:38;;;;;;;10.13;6.50;;;7.00;99.90;;;;;;5064211;28;20550;-70
2022/03/18 08:07:04;;;;;;;12.53;7.40;;;7.20;99.90;;;;;;5059827;28;20693;-69
2022/03/18 08:09:29;;;;;;;9.87;6.57;;;7.20;99.90;;;;;;5063650;28;20170;-69
2022/03/18 08:11:56;;;;;;;8.50;6.23;;;7.30;99.90;;;;;;5075958;28;20315;-69
2022/03/18 08:14:22;;;;;;;13.07;6.30;;;7.40;99.90;;;;;;5073747;28;20302;-70
2022/03/18 08:16:48;;;;;;;12.27;7.60;;;7.50;99.90;;;;;;5073393;28;20494;-70
2022/03/18 08:19:14;;;;;;;10.70;6.10;;;7.60;99.90;;;;;;5071706;28;20430;-68
2022/03/18 08:21:40;;;;;;;6.53;5.33;;;7.70;99.90;;;;;;5071700;28;20398;-69
2022/03/18 08:24:07;;;;;;;7.50;5.77;;;7.80;99.90;;;;;;5071621;28;20179;-69
2022/03/18 08:26:36;;;;;;;10.53;6.97;;;8.00;99.90;;;;;;5071724;28;20197;-68
2022/03/18 08:29:03;;;;;;;7.83;5.50;;;8.00;99.90;;;;;;5071782;28;20498;-71
2022/03/18 08:31:30;;;;;;;6.37;4.57;;;8.10;99.90;;;;;;5075148;28;20429;-69
2022/03/18 08:33:55;;;;;;;10.10;4.70;;;8.20;99.90;;;;;;5074752;28;20457;-67
2022/03/18 08:36:21;;;;;;;6.50;4.37;;;8.30;99.90;;;;;;5074971;28;20432;-69
2022/03/18 08:38:46;;;;;;;5.37;4.43;;;8.40;99.90;;;;;;5074895;28;20663;-68
2022/03/18 08:41:12;;;;;;;7.77;4.40;;;8.50;99.90;;;;;;5056964;28;20248;-69
2022/03/18 08:43:38;;;;;;;7.60;3.47;;;8.60;99.90;;;;;;5074310;28;20189;-69
2022/03/18 08:46:04;;;;;;;4.70;3.37;;;8.60;99.90;;;;;;5074228;28;20431;-69
2022/03/18 08:48:30;;;;;;;3.43;3.10;;;8.70;99.80;;;;;;5074090;28;20170;-68
2022/03/18 08:50:56;;;;;;;3.50;3.10;;;8.70;99.20;;;;;;5074007;28;20411;-69
2022/03/18 08:53:21;;;;;;;3.23;2.93;;;8.70;99.20;;;;;;5074148;28;20197;-70
2022/03/18 08:55:47;;;;;;;6.90;3.00;;;8.90;99.60;;;;;;5073865;28;20342;-70
2022/03/18 08:58:12;;;;;;;5.10;3.43;;;9.00;99.00;;;;;;5073941;28;20179;-69
2022/03/18 09:00:38;;;;;;;4.27;2.20;;;9.10;98.60;;;;;;5074103;28;20180;-69
2022/03/18 09:03:04;;;;;;;3.73;2.50;;;9.00;96.90;;;;;;5073787;28;20314;-70
2022/03/18 09:05:30;;;;;;;5.27;2.50;;;9.10;97.40;;;;;;5073915;28;20197;-69
2022/03/18 09:07:56;;;;;;;5.80;2.33;;;9.20;96.80;;;;;;5073479;28;20942;-70
2022/03/18 09:10:22;;;;;;;3.47;2.53;;;9.40;96.70;;;;;;5069518;28;20413;-69
2022/03/18 09:12:49;;;;;;;4.27;2.53;;;9.40;95.60;;;;;;5053398;28;20404;-69
2022/03/18 09:15:16;;;;;;;5.07;2.30;;;9.50;95.40;;;;;;5053563;28;20317;-68
2022/03/18 09:17:42;;;;;;;2.30;2.10;;;9.60;95.80;;;;;;5053617;28;20404;-69
2022/03/18 09:20:08;;;;;;;4.40;2.27;;;9.70;95.40;;;;;;5053338;28;20413;-69
2022/03/18 09:22:33;;;;;;;4.57;2.70;;;9.80;95.00;;;;;;5053603;28;20170;-69
2022/03/18 09:24:59;;;;;;;4.37;3.07;;;9.90;94.70;;;;;;5053447;28;20943;-68
2022/03/18 09:27:24;;;;;;;3.77;2.30;;;9.90;94.20;;;;;;5053781;28;20491;-71
2022/03/18 09:29:50;;;;;;;3.43;2.33;;;10.00;93.50;;;;;;5035397;28;20178;-70
2022/03/18 09:32:15;;;;;;;4.67;2.97;;;10.10;93.80;;;;;;5053303;28;20181;-69
2022/03/18 09:34:42;;;;;;;3.80;2.47;;;10.10;93.00;;;;;;5053822;28;20202;-68
2022/03/18 09:37:07;;;;;;;4.13;2.43;;;10.20;92.70;;;;;;5053485;28;20198;-67
2022/03/18 09:39:33;;;;;;;4.83;2.50;;;10.30;92.50;;;;;;5055435;28;20408;-70
2022/03/18 09:41:59;;;;;;;3.00;2.37;;;10.40;92.40;;;;;;5055913;28;20190;-70
2022/03/18 09:44:36;;;;;;;4.17;2.90;;;10.50;92.30;;;;;;5055135;28;20182;-68
2022/03/18 09:47:03;;;;;;;2.90;2.60;;;10.50;92.50;;;;;;5036652;28;20534;-68
2022/03/18 09:49:29;;;;;;;7.37;3.47;;;10.30;92.60;;;;;;5053020;28;20416;-68
2022/03/18 09:51:54;;;;;;;4.13;2.83;;;10.20;93.10;;;;;;5053201;28;20889;-68
2022/03/18 09:54:20;;;;;;;5.40;3.07;;;10.30;93.50;;;;;;5052864;28;20448;-68
2022/03/18 09:56:47;;;;;;;2.77;2.57;;;10.40;92.90;;;;;;5052757;28;20210;-68
2022/03/18 09:59:13;;;;;;;4.70;2.77;;;10.30;92.50;;;;;;5052926;28;20178;-69
2022/03/18 10:01:39;;;;;;;5.83;2.90;;;10.30;92.20;;;;;;5052555;28;20405;-69
2022/03/18 10:04:07;;;;;;;4.50;3.37;;;10.30;92.60;;;;;;5053095;28;20401;-70
2022/03/18 10:06:34;;;;;;;3.53;3.23;;;10.50;92.90;;;;;;5052655;28;20997;-69
2022/03/18 10:09:01;;;;;;;8.43;4.10;;;10.60;92.70;;;;;;5052113;28;20409;-68
2022/03/18 10:11:30;;;;;;;5.70;3.47;;;10.70;92.10;;;;;;5066397;28;20416;-70
2022/03/18 10:14:07;;;;;;;5.40;3.13;;;10.70;92.40;;;;;;5072657;28;20882;-70
2022/03/18 10:16:37;;;;;;;2.40;2.20;;;10.80;91.70;;;;;;5072725;28;20423;-69
2022/03/18 10:19:17;;;;;;;4.17;2.70;;;10.70;91.40;;;;;;5072204;28;20411;-68
2022/03/18 10:21:57;;;;;;;5.07;3.30;;;10.80;91.00;;;;;;5072058;28;20484;-69
2022/03/18 10:24:35;;;;;;;3.93;2.80;;;10.60;91.30;;;;;;5072218;28;20465;-68
2022/03/18 10:27:12;;;;;;;3.90;2.60;;;10.80;91.20;;;;;;5071839;28;21110;-69
2022/03/18 10:29:46;;;;;;;3.70;2.77;;;10.90;91.30;;;;;;5053932;28;20415;-69
2022/03/18 10:32:13;;;;;;;5.40;2.87;;;11.10;91.20;;;;;;5072138;28;20430;-69
2022/03/18 10:37:48;;;;;;;3.20;2.73;;;11.40;88.90;;;;;;4990455;28;20507;-70
2022/03/18 10:40:17;;;;;;;4.77;2.40;;;11.70;88.60;;;;;;5058119;28;20416;-69
2022/03/18 10:42:59;;;;;;;2.60;2.10;;;11.70;85.70;;;;;;5071711;28;20415;-68
2022/03/18 10:45:25;;;;;;;3.30;2.27;;;11.90;84.50;;;;;;5072596;28;20423;-68
2022/03/18 10:47:52;;;;;;;2.73;2.30;;;11.90;84.10;;;;;;5072273;28;20912;-68
2022/03/18 10:50:24;;;;;;;5.23;2.20;;;12.00;84.30;;;;;;5072360;28;20806;-70
2022/03/18 10:52:50;;;;;;;3.23;2.10;;;12.00;83.20;;;;;;5071691;28;20469;-70
2022/03/18 10:55:28;;;;;;;2.30;1.67;;;12.00;81.70;;;;;;5071911;28;20423;-68
2022/03/18 10:57:56;;;;;;;7.93;2.00;;;12.10;81.00;;;;;;5072318;28;20264;-69
2022/03/18 11:00:25;;;;;;;6.33;2.30;;;12.20;79.80;;;;;;5072030;28;20457;-68
2022/03/18 11:02:52;;;;;;;3.33;2.40;;;12.30;79.10;;;;;;5071812;28;20510;-70
2022/03/18 11:05:22;;;;;;;2.50;2.30;;;12.20;78.80;;;;;;5071994;28;20428;-69
2022/03/18 11:07:51;;;;;;;5.60;2.20;;;12.30;78.90;;;;;;5071321;28;20419;-69
2022/03/18 11:13:03;;;;;;;5.27;2.87;;;12.20;78.20;;;;;;5051211;28;20416;-69
2022/03/18 11:15:35;;;;;;;3.73;2.33;;;12.20;78.50;;;;;;5051037;28;20440;-69
2022/03/18 11:18:03;;;;;;;3.30;2.70;;;12.20;78.90;;;;;;5051593;28;20487;-69
2022/03/18 11:20:32;;;;;;;5.20;3.07;;;12.20;79.70;;;;;;5051515;28;20413;-69
2022/03/18 11:22:58;;;;;;;3.50;2.90;;;12.20;80.00;;;;;;5050963;28;20428;-69
2022/03/18 11:25:24;;;;;;;3.70;3.00;;;12.30;78.90;;;;;;5051373;28;20801;-70
2022/03/18 11:27:51;;;;;;;4.00;3.50;;;12.30;80.60;;;;;;5051355;28;20174;-69
2022/03/18 11:30:22;;;;;;;3.47;3.03;;;12.40;82.00;;;;;;5051746;28;20400;-69
2022/03/18 11:33:06;;;;;;;2.83;2.30;;;12.50;81.60;;;;;;5051808;28;20507;-69
2022/03/18 11:35:49;;;;;;;3.10;2.37;;;12.50;77.30;;;;;;5052082;28;20475;-69
2022/03/18 11:38:22;;;;;;;2.00;1.90;;;12.50;78.40;;;;;;5030926;28;20457;-70
2022/03/18 11:41:00;;;;;;;7.37;2.07;;;12.50;77.40;;;;;;5031186;28;20454;-69
2022/03/18 11:43:32;;;;;;;3.67;1.67;;;12.50;78.50;;;;;;5030275;28;20523;-67
2022/03/18 11:46:16;;;;;;;2.87;2.40;;;12.60;82.90;;;;;;5031171;28;20480;-68
2022/03/18 11:48:49;;;;;;;3.73;2.33;;;12.70;78.40;;;;;;5032652;28;20433;-68
2022/03/18 11:51:31;;;;;;;2.23;1.60;;;12.60;76.80;;;;;;5029472;28;20822;-68
2022/03/18 11:54:01;;;;;;;5.37;4.33;;;12.70;76.30;;;;;;5030619;28;20538;-70
2022/03/18 11:56:51;;;;;;;5.50;4.97;;;12.70;75.70;;;;;;5030133;28;20797;-69
2022/03/18 11:59:28;;;;;;;49.53;45.13;;;12.90;77.50;;;;;;5041056;28;20463;-70
2022/03/18 12:01:56;;;;;;;22.30;20.43;;;12.80;71.60;;;;;;5070295;28;20520;-68
2022/03/18 12:04:42;;;;;;;5.57;5.07;;;12.80;71.30;;;;;;5072245;28;20568;-68
2022/03/18 12:07:28;;;;;;;2.90;2.00;;;12.90;73.80;;;;;;5075566;28;20434;-69
2022/03/18 12:09:55;;;;;;;4.60;4.13;;;12.90;71.30;;;;;;5076046;28;20907;-68
2022/03/18 12:12:22;;;;;;;6.83;6.20;;;12.80;69.80;;;;;;5075212;28;20417;-68
2022/03/18 12:14:48;;;;;;;2.77;2.57;;;12.70;69.00;;;;;;5075246;28;20876;-70
2022/03/18 12:17:14;;;;;;;2.37;2.17;;;12.60;66.00;;;;;;5075133;28;20424;-69
2022/03/18 12:19:42;;;;;;;2.40;2.00;;;12.50;66.60;;;;;;5075381;28;20434;-71
2022/03/18 12:22:09;;;;;;;1.90;1.80;;;12.50;67.90;;;;;;5075166;28;20503;-70
2022/03/18 12:24:34;;;;;;;3.33;2.63;;;12.60;66.90;;;;;;5075195;28;20411;-68
2022/03/18 12:27:00;;;;;;;3.03;2.13;;;12.60;67.50;;;;;;5074703;28;20936;-68
2022/03/18 12:29:28;;;;;;;2.07;1.90;;;12.70;68.70;;;;;;5075083;28;20170;-69
2022/03/18 12:32:05;;;;;;;2.50;2.30;;;12.70;68.60;;;;;;5075007;28;20183;-70
2022/03/18 12:34:31;;;;;;;5.03;3.03;;;12.70;68.40;;;;;;5074911;28;20447;-70
2022/03/18 12:36:56;;;;;;;3.60;2.10;;;12.70;67.20;;;;;;5075731;28;20823;-70
2022/03/18 12:39:26;;;;;;;3.13;2.07;;;12.60;66.20;;;;;;5074998;28;20174;-70
2022/03/18 12:42:12;;;;;;;3.63;2.03;;;12.70;65.50;;;;;;5074523;28;20176;-69
2022/03/18 12:44:38;;;;;;;2.50;2.20;;;12.70;64.90;;;;;;5074737;28;20399;-69
2022/03/18 12:47:05;;;;;;;2.97;1.70;;;12.60;64.90;;;;;;5075344;28;20447;-69
2022/03/18 12:49:38;;;;;;;2.90;1.80;;;12.60;65.10;;;;;;5074978;28;20404;-70
2022/03/18 12:52:11;;;;;;;2.53;2.33;;;12.60;64.90;;;;;;5074594;28;20437;-70
2022/03/18 12:54:37;;;;;;;2.80;2.00;;;12.60;65.00;;;;;;5074490;28;20465;-70
2022/03/18 12:57:07;;;;;;;3.30;1.87;;;12.60;63.80;;;;;;5074489;28;20444;-70
2022/03/18 12:59:33;;;;;;;2.93;2.20;;;12.50;65.00;;;;;;5074601;28;20492;-70